sensor_id;sensor_type;location;lat;lon;timestamp;pressure;altitude;pressure_sealevel;temperature;humidity
21359;BME280;13506;50.852;20.632;2022-08-18T00:00:36;98015.88;;;22.79;100.00
21359;BME280;13506;50.852;20.632;2022-08-18T00:03:08;98012.00;;;22.89;100.00
21359;BME280;13506;50.852;20.632;2022-08-18T00:05:38;98014.09;;;22.94;100.00
21359;BME280;13506;50.852;20.632;2022-08-18T00:08:06;98016.56;;;23.04;100.00
21359;BME280;13506;50.852;20.632;2022-08-18T00:10:34;98015.38;;;23.06;99.30
21359;BME280;13506;50.852;20.632;2022-08-18T00:13:01;98003.41;;;23.10;99.41
21359;BME280;13506;50.852;20.632;2022-08-18T00:15:29;98009.00;;;23.15;98.60
21359;BME280;13506;50.852;20.632;2022-08-18T00:17:56;98007.19;;;23.16;98.49
21359;BME280;13506;50.852;20.632;2022-08-18T00:20:25;98016.69;;;23.10;98.41
21359;BME280;13506;50.852;20.632;2022-08-18T00:22:53;98005.53;;;23.15;98.23
21359;BME280;13506;50.852;20.632;2022-08-18T00:25:23;98009.47;;;23.19;98.37
21359;BME280;13506;50.852;20.632;2022-08-18T00:27:50;98007.66;;;23.20;97.98
21359;BME280;13506;50.852;20.632;2022-08-18T00:30:20;98010.94;;;23.22;97.44
21359;BME280;13506;50.852;20.632;2022-08-18T00:32:56;98007.31;;;23.23;97.80
21359;BME280;13506;50.852;20.632;2022-08-18T00:35:26;98015.91;;;23.25;97.57
21359;BME280;13506;50.852;20.632;2022-08-18T00:37:57;98008.22;;;23.30;97.03
21359;BME280;13506;50.852;20.632;2022-08-18T00:40:29;98030.94;;;23.32;95.90
21359;BME280;13506;50.852;20.632;2022-08-18T00:43:00;98026.28;;;23.34;95.93
21359;BME280;13506;50.852;20.632;2022-08-18T00:45:32;98042.41;;;23.33;95.93
21359;BME280;13506;50.852;20.632;2022-08-18T00:48:01;98036.91;;;23.34;95.67
21359;BME280;13506;50.852;20.632;2022-08-18T00:50:34;98038.72;;;23.34;95.46
21359;BME280;13506;50.852;20.632;2022-08-18T00:53:12;98038.47;;;23.29;95.41
21359;BME280;13506;50.852;20.632;2022-08-18T00:55:43;98040.16;;;23.22;96.24
21359;BME280;13506;50.852;20.632;2022-08-18T00:58:21;98052.78;;;23.20;96.66
21359;BME280;13506;50.852;20.632;2022-08-18T01:00:51;98043.28;;;23.25;95.89
21359;BME280;13506;50.852;20.632;2022-08-18T01:03:21;98048.47;;;23.19;96.20
21359;BME280;13506;50.852;20.632;2022-08-18T01:05:55;98048.66;;;23.17;96.28
21359;BME280;13506;50.852;20.632;2022-08-18T01:08:28;98051.47;;;23.15;96.14
21359;BME280;13506;50.852;20.632;2022-08-18T01:10:57;98047.53;;;23.11;96.28
21359;BME280;13506;50.852;20.632;2022-08-18T01:13:29;98054.31;;;23.14;95.71
21359;BME280;13506;50.852;20.632;2022-08-18T01:15:58;98050.53;;;23.08;96.03
21359;BME280;13506;50.852;20.632;2022-08-18T01:18:46;98049.56;;;23.09;95.91
21359;BME280;13506;50.852;20.632;2022-08-18T01:21:36;98046.69;;;23.11;95.46
21359;BME280;13506;50.852;20.632;2022-08-18T01:24:26;98041.78;;;23.00;96.23
21359;BME280;13506;50.852;20.632;2022-08-18T01:27:09;98045.94;;;22.94;96.15
21359;BME280;13506;50.852;20.632;2022-08-18T01:29:37;98037.81;;;22.95;95.89
21359;BME280;13506;50.852;20.632;2022-08-18T01:32:05;98050.09;;;22.96;95.91
21359;BME280;13506;50.852;20.632;2022-08-18T01:34:32;98045.13;;;23.02;95.51
21359;BME280;13506;50.852;20.632;2022-08-18T01:37:00;98048.06;;;22.98;95.01
21359;BME280;13506;50.852;20.632;2022-08-18T01:39:31;98055.03;;;23.00;94.96
21359;BME280;13506;50.852;20.632;2022-08-18T01:41:59;98051.25;;;22.94;95.34
21359;BME280;13506;50.852;20.632;2022-08-18T01:44:30;98038.84;;;22.94;95.00
21359;BME280;13506;50.852;20.632;2022-08-18T04:19:03;98045.22;;;21.65;100.00
21359;BME280;13506;50.852;20.632;2022-08-18T04:21:32;98060.25;;;21.81;100.00
21359;BME280;13506;50.852;20.632;2022-08-18T04:24:00;98062.75;;;21.91;100.00
21359;BME280;13506;50.852;20.632;2022-08-18T04:26:31;98066.72;;;21.95;100.00
21359;BME280;13506;50.852;20.632;2022-08-18T04:28:59;98066.72;;;21.95;100.00
21359;BME280;13506;50.852;20.632;2022-08-18T04:31:28;98079.44;;;22.00;100.00
21359;BME280;13506;50.852;20.632;2022-08-18T04:33:57;98077.41;;;22.18;100.00
21359;BME280;13506;50.852;20.632;2022-08-18T04:36:28;98083.34;;;22.36;100.00
21359;BME280;13506;50.852;20.632;2022-08-18T04:38:57;98080.31;;;22.48;100.00
21359;BME280;13506;50.852;20.632;2022-08-18T04:41:25;98083.25;;;22.61;100.00
21359;BME280;13506;50.852;20.632;2022-08-18T04:43:53;98093.47;;;22.72;100.00
21359;BME280;13506;50.852;20.632;2022-08-18T04:46:23;98087.44;;;22.87;100.00
21359;BME280;13506;50.852;20.632;2022-08-18T04:48:51;98085.22;;;22.98;100.00
21359;BME280;13506;50.852;20.632;2022-08-18T04:51:28;98087.84;;;23.07;100.00
21359;BME280;13506;50.852;20.632;2022-08-18T04:53:56;98081.31;;;23.17;100.00
21359;BME280;13506;50.852;20.632;2022-08-18T04:56:26;98083.91;;;23.26;99.99
21359;BME280;13506;50.852;20.632;2022-08-18T04:59:00;98091.50;;;23.37;99.88
21359;BME280;13506;50.852;20.632;2022-08-18T05:01:33;98090.91;;;23.50;99.11
21359;BME280;13506;50.852;20.632;2022-08-18T05:04:01;98079.03;;;23.61;98.91
21359;BME280;13506;50.852;20.632;2022-08-18T05:06:30;98072.28;;;23.73;98.90
21359;BME280;13506;50.852;20.632;2022-08-18T05:09:01;98080.66;;;23.85;99.32
21359;BME280;13506;50.852;20.632;2022-08-18T05:11:31;98082.44;;;23.92;98.92
21359;BME280;13506;50.852;20.632;2022-08-18T05:14:00;98079.31;;;24.04;98.83
21359;BME280;13506;50.852;20.632;2022-08-18T05:16:29;98088.84;;;24.13;98.39
21359;BME280;13506;50.852;20.632;2022-08-18T05:19:02;98090.25;;;24.09;99.01
21359;BME280;13506;50.852;20.632;2022-08-18T05:21:32;98084.81;;;24.17;98.14
21359;BME280;13506;50.852;20.632;2022-08-18T05:24:03;98095.09;;;24.20;97.57
21359;BME280;13506;50.852;20.632;2022-08-18T05:26:31;98095.44;;;24.17;98.28
21359;BME280;13506;50.852;20.632;2022-08-18T05:28:59;98099.84;;;24.10;98.94
21359;BME280;13506;50.852;20.632;2022-08-18T05:31:28;98092.53;;;24.12;98.60
21359;BME280;13506;50.852;20.632;2022-08-18T05:33:57;98097.03;;;24.41;98.49
21359;BME280;13506;50.852;20.632;2022-08-18T05:36:52;98096.69;;;24.59;96.76
21359;BME280;13506;50.852;20.632;2022-08-18T05:39:29;98105.00;;;24.26;98.10
21359;BME280;13506;50.852;20.632;2022-08-18T05:42:04;98107.69;;;24.71;97.46
21359;BME280;13506;50.852;20.632;2022-08-18T05:44:38;98108.00;;;24.97;96.38
21359;BME280;13506;50.852;20.632;2022-08-18T05:47:12;98110.25;;;25.15;95.80
21359;BME280;13506;50.852;20.632;2022-08-18T05:49:43;98106.88;;;25.43;95.55
21359;BME280;13506;50.852;20.632;2022-08-18T05:52:18;98096.03;;;25.66;94.09
21359;BME280;13506;50.852;20.632;2022-08-18T05:54:53;98097.75;;;25.31;92.21
21359;BME280;13506;50.852;20.632;2022-08-18T05:57:43;98102.38;;;25.07;92.46
21359;BME280;13506;50.852;20.632;2022-08-18T06:00:12;98104.28;;;24.47;94.60
21359;BME280;13506;50.852;20.632;2022-08-18T06:02:45;98095.59;;;24.53;95.68
21359;BME280;13506;50.852;20.632;2022-08-18T06:05:20;98105.59;;;24.66;96.12
21359;BME280;13506;50.852;20.632;2022-08-18T06:07:56;98102.59;;;24.91;94.05
21359;BME280;13506;50.852;20.632;2022-08-18T06:10:25;98109.91;;;24.52;94.31
21359;BME280;13506;50.852;20.632;2022-08-18T06:12:56;98109.31;;;24.42;96.12
21359;BME280;13506;50.852;20.632;2022-08-18T06:15:34;98106.38;;;24.37;96.15
21359;BME280;13506;50.852;20.632;2022-08-18T06:18:25;98106.03;;;24.55;95.67
21359;BME280;13506;50.852;20.632;2022-08-18T06:21:21;98109.81;;;24.61;96.04
21359;BME280;13506;50.852;20.632;2022-08-18T06:24:09;98108.97;;;25.11;94.86
21359;BME280;13506;50.852;20.632;2022-08-18T06:26:42;98104.97;;;25.58;94.09
21359;BME280;13506;50.852;20.632;2022-08-18T06:29:29;98101.66;;;25.99;91.38
21359;BME280;13506;50.852;20.632;2022-08-18T06:32:09;98101.59;;;25.93;89.83
21359;BME280;13506;50.852;20.632;2022-08-18T06:34:54;98107.84;;;26.07;89.21
21359;BME280;13506;50.852;20.632;2022-08-18T06:37:33;98110.59;;;26.20;89.56
21359;BME280;13506;50.852;20.632;2022-08-18T06:40:22;98110.09;;;26.31;88.54
21359;BME280;13506;50.852;20.632;2022-08-18T06:42:50;98105.53;;;26.60;88.42
21359;BME280;13506;50.852;20.632;2022-08-18T06:45:18;98110.91;;;26.67;87.70
21359;BME280;13506;50.852;20.632;2022-08-18T06:48:03;98110.97;;;26.45;87.77
21359;BME280;13506;50.852;20.632;2022-08-18T06:50:45;98115.66;;;26.08;88.91
21359;BME280;13506;50.852;20.632;2022-08-18T06:53:15;98110.75;;;26.40;87.51
21359;BME280;13506;50.852;20.632;2022-08-18T06:55:47;98120.19;;;26.08;89.18
21359;BME280;13506;50.852;20.632;2022-08-18T06:58:28;98127.59;;;26.12;88.16
21359;BME280;13506;50.852;20.632;2022-08-18T07:01:00;98123.78;;;26.28;89.00
21359;BME280;13506;50.852;20.632;2022-08-18T07:03:45;98124.66;;;26.64;86.41
21359;BME280;13506;50.852;20.632;2022-08-18T07:06:28;98125.03;;;27.02;85.18
21359;BME280;13506;50.852;20.632;2022-08-18T07:09:19;98123.63;;;27.19;84.48
21359;BME280;13506;50.852;20.632;2022-08-18T07:12:04;98125.59;;;27.59;83.22
21359;BME280;13506;50.852;20.632;2022-08-18T07:14:42;98128.47;;;27.64;81.20
21359;BME280;13506;50.852;20.632;2022-08-18T07:17:18;98133.69;;;27.86;80.68
21359;BME280;13506;50.852;20.632;2022-08-18T07:20:00;98131.19;;;27.97;80.61
21359;BME280;13506;50.852;20.632;2022-08-18T07:22:29;98137.16;;;28.06;78.41
21359;BME280;13506;50.852;20.632;2022-08-18T07:25:00;98139.44;;;27.89;78.70
21359;BME280;13506;50.852;20.632;2022-08-18T07:27:44;98135.91;;;27.82;78.73
21359;BME280;13506;50.852;20.632;2022-08-18T07:30:29;98136.06;;;27.47;79.05
21359;BME280;13506;50.852;20.632;2022-08-18T07:33:05;98145.19;;;28.06;78.69
21359;BME280;13506;50.852;20.632;2022-08-18T07:35:41;98136.09;;;27.60;79.26
21359;BME280;13506;50.852;20.632;2022-08-18T07:38:18;98140.66;;;27.93;78.09
21359;BME280;13506;50.852;20.632;2022-08-18T07:40:55;98132.03;;;28.18;76.37
21359;BME280;13506;50.852;20.632;2022-08-18T07:43:34;98135.84;;;28.69;74.90
21359;BME280;13506;50.852;20.632;2022-08-18T07:46:11;98136.03;;;28.74;74.18
21359;BME280;13506;50.852;20.632;2022-08-18T07:48:40;98133.50;;;28.92;74.31
21359;BME280;13506;50.852;20.632;2022-08-18T07:51:16;98132.06;;;29.35;73.97
21359;BME280;13506;50.852;20.632;2022-08-18T07:53:55;98121.22;;;28.71;74.15
21359;BME280;13506;50.852;20.632;2022-08-18T07:56:34;98122.00;;;29.30;73.70
21359;BME280;13506;50.852;20.632;2022-08-18T07:59:15;98126.25;;;28.99;66.01
21359;BME280;13506;50.852;20.632;2022-08-18T08:01:52;98125.16;;;29.20;65.86
21359;BME280;13506;50.852;20.632;2022-08-18T08:04:29;98129.22;;;29.30;65.01
21359;BME280;13506;50.852;20.632;2022-08-18T08:07:08;98135.03;;;29.20;65.27
21359;BME280;13506;50.852;20.632;2022-08-18T08:09:47;98126.47;;;29.75;64.10
21359;BME280;13506;50.852;20.632;2022-08-18T08:12:25;98140.94;;;29.35;64.99
21359;BME280;13506;50.852;20.632;2022-08-18T08:15:10;98135.81;;;29.66;63.83
21359;BME280;13506;50.852;20.632;2022-08-18T08:17:46;98137.09;;;29.56;62.85
21359;BME280;13506;50.852;20.632;2022-08-18T08:20:28;98129.72;;;30.09;61.72
21359;BME280;13506;50.852;20.632;2022-08-18T08:23:07;98144.88;;;30.65;59.37
21359;BME280;13506;50.852;20.632;2022-08-18T08:25:52;98139.97;;;29.93;61.58
21359;BME280;13506;50.852;20.632;2022-08-18T08:28:31;98137.44;;;29.98;60.94
21359;BME280;13506;50.852;20.632;2022-08-18T08:31:10;98133.38;;;29.57;62.62
21359;BME280;13506;50.852;20.632;2022-08-18T08:33:44;98133.47;;;29.76;62.50
21359;BME280;13506;50.852;20.632;2022-08-18T08:36:20;98130.25;;;29.92;60.99
21359;BME280;13506;50.852;20.632;2022-08-18T08:38:55;98125.91;;;30.41;60.75
21359;BME280;13506;50.852;20.632;2022-08-18T08:41:31;98124.66;;;30.99;59.07
21359;BME280;13506;50.852;20.632;2022-08-18T08:44:07;98129.81;;;30.64;56.28
21359;BME280;13506;50.852;20.632;2022-08-18T08:46:43;98133.22;;;30.09;57.82
21359;BME280;13506;50.852;20.632;2022-08-18T08:49:27;98129.94;;;30.51;58.22
21359;BME280;13506;50.852;20.632;2022-08-18T08:52:02;98127.41;;;30.56;57.61
21359;BME280;13506;50.852;20.632;2022-08-18T08:54:43;98125.16;;;31.08;56.12
21359;BME280;13506;50.852;20.632;2022-08-18T08:57:13;98132.72;;;31.30;54.53
21359;BME280;13506;50.852;20.632;2022-08-18T08:59:44;98127.31;;;31.90;54.50
21359;BME280;13506;50.852;20.632;2022-08-18T09:03:01;98125.22;;;32.63;52.54
21359;BME280;13506;50.852;20.632;2022-08-18T09:05:38;98130.63;;;32.16;50.43
21359;BME280;13506;50.852;20.632;2022-08-18T09:08:32;98117.03;;;32.11;50.18
21359;BME280;13506;50.852;20.632;2022-08-18T09:11:22;98119.47;;;31.89;51.40
21359;BME280;13506;50.852;20.632;2022-08-18T09:18:11;98114.34;;;32.22;50.21
21359;BME280;13506;50.852;20.632;2022-08-18T09:20:53;98116.03;;;31.70;50.97
21359;BME280;13506;50.852;20.632;2022-08-18T09:23:29;98107.25;;;31.32;52.62
21359;BME280;13506;50.852;20.632;2022-08-18T09:26:24;98109.34;;;31.30;53.35
21359;BME280;13506;50.852;20.632;2022-08-18T09:28:57;98121.38;;;31.28;53.05
21359;BME280;13506;50.852;20.632;2022-08-18T09:31:27;98114.28;;;31.87;52.19
21359;BME280;13506;50.852;20.632;2022-08-18T09:34:24;98117.72;;;31.94;51.95
21359;BME280;13506;50.852;20.632;2022-08-18T09:37:10;98123.94;;;32.18;51.19
21359;BME280;13506;50.852;20.632;2022-08-18T09:39:43;98119.97;;;32.56;52.22
21359;BME280;13506;50.852;20.632;2022-08-18T09:42:37;98114.72;;;32.90;50.80
21359;BME280;13506;50.852;20.632;2022-08-18T09:45:10;98110.72;;;32.64;49.32
21359;BME280;13506;50.852;20.632;2022-08-18T09:48:01;98115.50;;;32.62;49.56
21359;BME280;13506;50.852;20.632;2022-08-18T09:50:51;98114.56;;;32.21;51.06
21359;BME280;13506;50.852;20.632;2022-08-18T09:54:11;98117.97;;;32.52;50.09
21359;BME280;13506;50.852;20.632;2022-08-18T09:57:19;98116.88;;;32.53;50.14
21359;BME280;13506;50.852;20.632;2022-08-18T10:03:21;98110.78;;;33.21;50.86
21359;BME280;13506;50.852;20.632;2022-08-18T10:09:21;98120.22;;;33.07;46.87
21359;BME280;13506;50.852;20.632;2022-08-18T10:12:14;98120.41;;;32.65;47.38
21359;BME280;13506;50.852;20.632;2022-08-18T10:15:11;98106.72;;;32.67;47.49
21359;BME280;13506;50.852;20.632;2022-08-18T10:18:04;98113.94;;;32.66;49.01
21359;BME280;13506;50.852;20.632;2022-08-18T10:20:46;98111.97;;;32.61;48.32
21359;BME280;13506;50.852;20.632;2022-08-18T10:23:52;98113.41;;;32.64;48.05
21359;BME280;13506;50.852;20.632;2022-08-18T10:27:09;98122.06;;;32.54;48.03
21359;BME280;13506;50.852;20.632;2022-08-18T10:29:48;98110.59;;;32.59;48.04
21359;BME280;13506;50.852;20.632;2022-08-18T10:32:38;98113.03;;;32.49;48.13
21359;BME280;13506;50.852;20.632;2022-08-18T10:35:53;98121.00;;;32.67;49.42
21359;BME280;13506;50.852;20.632;2022-08-18T10:38:44;98119.72;;;32.46;48.94
21359;BME280;13506;50.852;20.632;2022-08-18T10:41:29;98121.69;;;32.51;48.53
21359;BME280;13506;50.852;20.632;2022-08-18T10:44:00;98138.06;;;32.84;47.64
21359;BME280;13506;50.852;20.632;2022-08-18T10:46:34;98126.44;;;32.96;46.91
21359;BME280;13506;50.852;20.632;2022-08-18T10:49:20;98132.16;;;32.12;47.84
21359;BME280;13506;50.852;20.632;2022-08-18T10:52:24;98132.41;;;31.68;49.74
21359;BME280;13506;50.852;20.632;2022-08-18T10:55:15;98134.19;;;31.86;48.57
21359;BME280;13506;50.852;20.632;2022-08-18T11:01:42;98135.06;;;32.22;48.68
21359;BME280;13506;50.852;20.632;2022-08-18T11:04:27;98121.09;;;32.49;47.50
21359;BME280;13506;50.852;20.632;2022-08-18T11:07:08;98110.00;;;32.57;47.88
21359;BME280;13506;50.852;20.632;2022-08-18T11:09:37;98117.56;;;31.89;47.86
21359;BME280;13506;50.852;20.632;2022-08-18T11:12:06;98105.78;;;32.37;47.77
21359;BME280;13506;50.852;20.632;2022-08-18T11:15:04;98092.53;;;32.48;46.83
21359;BME280;13506;50.852;20.632;2022-08-18T11:17:48;98108.19;;;32.74;46.72
21359;BME280;13506;50.852;20.632;2022-08-18T11:20:22;98097.22;;;32.52;47.10
21359;BME280;13506;50.852;20.632;2022-08-18T11:22:54;98099.16;;;32.80;45.43
21359;BME280;13506;50.852;20.632;2022-08-18T11:25:26;98098.56;;;33.19;45.23
21359;BME280;13506;50.852;20.632;2022-08-18T11:27:54;98089.56;;;33.59;45.12
21359;BME280;13506;50.852;20.632;2022-08-18T11:30:29;98086.13;;;33.97;45.17
21359;BME280;13506;50.852;20.632;2022-08-18T11:32:59;98073.56;;;34.42;43.15
21359;BME280;13506;50.852;20.632;2022-08-18T11:35:32;98078.31;;;34.74;42.00
21359;BME280;13506;50.852;20.632;2022-08-18T11:38:04;98075.56;;;34.96;42.63
21359;BME280;13506;50.852;20.632;2022-08-18T11:40:40;98072.56;;;34.92;41.35
21359;BME280;13506;50.852;20.632;2022-08-18T11:43:15;98067.31;;;34.19;43.29
21359;BME280;13506;50.852;20.632;2022-08-18T11:45:57;98065.97;;;34.83;41.63
21359;BME280;13506;50.852;20.632;2022-08-18T11:48:37;98063.31;;;34.88;42.38
21359;BME280;13506;50.852;20.632;2022-08-18T11:51:15;98070.97;;;34.96;41.02
21359;BME280;13506;50.852;20.632;2022-08-18T11:53:53;98072.84;;;34.91;41.72
21359;BME280;13506;50.852;20.632;2022-08-18T11:56:25;98069.25;;;35.12;40.53
21359;BME280;13506;50.852;20.632;2022-08-18T11:58:56;98073.50;;;35.30;40.83
21359;BME280;13506;50.852;20.632;2022-08-18T12:01:37;98063.94;;;35.50;40.50
21359;BME280;13506;50.852;20.632;2022-08-18T12:04:19;98075.31;;;35.19;40.35
21359;BME280;13506;50.852;20.632;2022-08-18T12:07:01;98070.25;;;35.28;40.05
21359;BME280;13506;50.852;20.632;2022-08-18T12:09:38;98066.56;;;35.12;40.53
21359;BME280;13506;50.852;20.632;2022-08-18T12:12:15;98068.44;;;35.39;40.67
21359;BME280;13506;50.852;20.632;2022-08-18T12:14:56;98066.28;;;35.41;41.16
21359;BME280;13506;50.852;20.632;2022-08-18T12:17:27;98052.78;;;35.41;41.34
21359;BME280;13506;50.852;20.632;2022-08-18T12:19:55;98048.53;;;35.50;41.89
21359;BME280;13506;50.852;20.632;2022-08-18T12:22:29;98046.75;;;35.06;40.61
21359;BME280;13506;50.852;20.632;2022-08-18T12:24:58;98056.19;;;35.04;40.75
21359;BME280;13506;50.852;20.632;2022-08-18T12:27:28;98047.41;;;34.92;39.86
21359;BME280;13506;50.852;20.632;2022-08-18T12:29:57;98046.97;;;35.00;40.62
21359;BME280;13506;50.852;20.632;2022-08-18T12:32:31;98039.16;;;35.03;39.91
21359;BME280;13506;50.852;20.632;2022-08-18T12:35:00;98040.13;;;35.19;40.37
21359;BME280;13506;50.852;20.632;2022-08-18T12:37:29;98032.72;;;35.37;39.78
21359;BME280;13506;50.852;20.632;2022-08-18T12:39:59;98037.19;;;35.21;40.40
21359;BME280;13506;50.852;20.632;2022-08-18T12:42:26;98025.69;;;35.08;41.13
21359;BME280;13506;50.852;20.632;2022-08-18T12:44:54;98019.13;;;34.77;41.45
21359;BME280;13506;50.852;20.632;2022-08-18T12:47:25;98020.66;;;34.24;41.21
21359;BME280;13506;50.852;20.632;2022-08-18T12:49:53;98010.59;;;34.41;41.11
21359;BME280;13506;50.852;20.632;2022-08-18T12:52:21;98009.09;;;34.29;41.24
21359;BME280;13506;50.852;20.632;2022-08-18T12:54:49;98008.25;;;34.06;42.91
21359;BME280;13506;50.852;20.632;2022-08-18T12:57:20;97991.84;;;33.74;43.09
21359;BME280;13506;50.852;20.632;2022-08-18T12:59:48;97993.25;;;33.59;43.07
21359;BME280;13506;50.852;20.632;2022-08-18T13:02:16;97976.22;;;33.59;44.16
21359;BME280;13506;50.852;20.632;2022-08-18T13:04:44;97982.63;;;32.73;44.10
21359;BME280;13506;50.852;20.632;2022-08-18T13:07:13;97976.59;;;33.29;45.84
21359;BME280;13506;50.852;20.632;2022-08-18T13:09:41;97975.78;;;33.45;45.34
21359;BME280;13506;50.852;20.632;2022-08-18T13:12:09;97983.94;;;33.33;45.95
21359;BME280;13506;50.852;20.632;2022-08-18T13:14:38;97978.72;;;33.26;45.44
21359;BME280;13506;50.852;20.632;2022-08-18T13:17:05;97968.53;;;33.84;45.05
21359;BME280;13506;50.852;20.632;2022-08-18T13:19:33;97968.72;;;33.44;45.14
21359;BME280;13506;50.852;20.632;2022-08-18T13:22:01;97963.97;;;33.00;45.23
21359;BME280;13506;50.852;20.632;2022-08-18T13:24:30;97959.84;;;32.98;46.30
21359;BME280;13506;50.852;20.632;2022-08-18T13:26:58;97964.41;;;33.26;46.22
21359;BME280;13506;50.852;20.632;2022-08-18T13:29:26;97970.56;;;33.21;45.33
21359;BME280;13506;50.852;20.632;2022-08-18T13:31:53;97966.94;;;33.16;45.04
21359;BME280;13506;50.852;20.632;2022-08-18T13:34:24;97972.41;;;33.21;44.70
21359;BME280;13506;50.852;20.632;2022-08-18T13:36:53;97974.13;;;32.64;43.97
21359;BME280;13506;50.852;20.632;2022-08-18T13:39:22;97972.19;;;32.36;45.08
21359;BME280;13506;50.852;20.632;2022-08-18T13:41:53;97978.19;;;32.27;45.30
21359;BME280;13506;50.852;20.632;2022-08-18T13:44:21;97970.13;;;32.67;44.85
21359;BME280;13506;50.852;20.632;2022-08-18T13:46:50;97971.06;;;32.20;44.45
21359;BME280;13506;50.852;20.632;2022-08-18T13:49:20;97965.19;;;32.23;45.13
21359;BME280;13506;50.852;20.632;2022-08-18T13:51:50;97973.41;;;32.57;46.06
21359;BME280;13506;50.852;20.632;2022-08-18T13:54:20;97968.03;;;32.86;46.42
21359;BME280;13506;50.852;20.632;2022-08-18T13:56:51;97965.84;;;32.42;46.22
21359;BME280;13506;50.852;20.632;2022-08-18T13:59:19;97969.22;;;32.50;46.67
21359;BME280;13506;50.852;20.632;2022-08-18T14:01:48;97964.50;;;32.69;46.14
21359;BME280;13506;50.852;20.632;2022-08-18T14:04:17;97967.34;;;31.98;47.04
21359;BME280;13506;50.852;20.632;2022-08-18T14:06:45;97994.03;;;31.52;48.31
21359;BME280;13506;50.852;20.632;2022-08-18T14:09:13;97979.66;;;31.82;48.33
21359;BME280;13506;50.852;20.632;2022-08-18T14:11:40;97976.59;;;31.78;47.51
21359;BME280;13506;50.852;20.632;2022-08-18T14:14:09;97973.47;;;31.81;48.03
21359;BME280;13506;50.852;20.632;2022-08-18T14:16:37;97984.81;;;31.72;47.58
21359;BME280;13506;50.852;20.632;2022-08-18T14:19:05;97991.66;;;32.15;46.46
21359;BME280;13506;50.852;20.632;2022-08-18T14:21:52;97997.81;;;31.98;46.16
21359;BME280;13506;50.852;20.632;2022-08-18T14:24:40;98005.94;;;31.44;47.54
21359;BME280;13506;50.852;20.632;2022-08-18T14:27:28;98009.25;;;31.70;47.85
21359;BME280;13506;50.852;20.632;2022-08-18T14:29:58;98006.69;;;31.75;46.67
21359;BME280;13506;50.852;20.632;2022-08-18T14:32:27;98008.88;;;31.67;46.90
21359;BME280;13506;50.852;20.632;2022-08-18T14:34:56;98021.28;;;31.91;45.78
21359;BME280;13506;50.852;20.632;2022-08-18T14:37:24;98019.31;;;31.87;45.81
21359;BME280;13506;50.852;20.632;2022-08-18T14:39:51;98018.84;;;31.54;47.16
21359;BME280;13506;50.852;20.632;2022-08-18T14:42:19;98008.91;;;31.90;47.25
21359;BME280;13506;50.852;20.632;2022-08-18T14:44:48;98014.25;;;31.67;47.42
21359;BME280;13506;50.852;20.632;2022-08-18T14:47:17;97994.63;;;32.01;46.75
21359;BME280;13506;50.852;20.632;2022-08-18T14:49:45;97995.53;;;32.19;46.63
21359;BME280;13506;50.852;20.632;2022-08-18T14:52:13;98006.44;;;31.77;47.18
21359;BME280;13506;50.852;20.632;2022-08-18T14:54:40;98006.41;;;31.41;47.83
21359;BME280;13506;50.852;20.632;2022-08-18T14:57:08;98005.03;;;31.51;48.33
21359;BME280;13506;50.852;20.632;2022-08-18T14:59:37;98013.63;;;31.41;47.55
21359;BME280;13506;50.852;20.632;2022-08-18T15:02:05;98005.03;;;31.62;47.67
21359;BME280;13506;50.852;20.632;2022-08-18T15:04:36;98013.25;;;31.25;47.66
21359;BME280;13506;50.852;20.632;2022-08-18T15:07:05;98004.53;;;31.42;47.13
21359;BME280;13506;50.852;20.632;2022-08-18T15:09:32;98005.19;;;31.14;47.08
21359;BME280;13506;50.852;20.632;2022-08-18T15:12:00;97998.47;;;31.47;47.34
21359;BME280;13506;50.852;20.632;2022-08-18T15:14:30;98012.56;;;31.18;48.13
21359;BME280;13506;50.852;20.632;2022-08-18T15:16:59;98012.41;;;31.13;47.70
21359;BME280;13506;50.852;20.632;2022-08-18T15:19:26;98000.13;;;31.06;47.24
21359;BME280;13506;50.852;20.632;2022-08-18T15:21:55;98006.53;;;30.93;47.81
21359;BME280;13506;50.852;20.632;2022-08-18T15:24:42;98006.66;;;30.79;48.93
21359;BME280;13506;50.852;20.632;2022-08-18T15:27:32;98000.69;;;30.96;47.99
21359;BME280;13506;50.852;20.632;2022-08-18T15:30:09;98006.66;;;30.98;48.51
21359;BME280;13506;50.852;20.632;2022-08-18T15:32:38;97986.91;;;31.04;47.86
21359;BME280;13506;50.852;20.632;2022-08-18T15:35:06;97982.63;;;30.84;48.16
21359;BME280;13506;50.852;20.632;2022-08-18T15:37:36;97975.94;;;30.75;49.12
21359;BME280;13506;50.852;20.632;2022-08-18T15:40:11;97984.88;;;30.88;48.22
21359;BME280;13506;50.852;20.632;2022-08-18T15:42:43;97988.22;;;31.01;48.32
21359;BME280;13506;50.852;20.632;2022-08-18T15:45:17;97987.25;;;30.77;49.23
21359;BME280;13506;50.852;20.632;2022-08-18T15:47:44;97987.69;;;30.62;49.39
21359;BME280;13506;50.852;20.632;2022-08-18T15:50:14;97988.75;;;30.24;49.60
21359;BME280;13506;50.852;20.632;2022-08-18T15:52:47;97996.06;;;30.17;50.16
21359;BME280;13506;50.852;20.632;2022-08-18T15:55:16;97988.22;;;30.16;49.87
21359;BME280;13506;50.852;20.632;2022-08-18T15:57:44;97992.19;;;30.13;50.68
21359;BME280;13506;50.852;20.632;2022-08-18T16:00:14;97994.69;;;30.33;50.43
21359;BME280;13506;50.852;20.632;2022-08-18T16:02:48;98002.25;;;30.55;49.90
21359;BME280;13506;50.852;20.632;2022-08-18T16:05:18;97997.22;;;30.58;50.10
21359;BME280;13506;50.852;20.632;2022-08-18T16:07:48;97992.50;;;30.72;48.91
21359;BME280;13506;50.852;20.632;2022-08-18T16:10:19;98000.50;;;30.60;49.10
21359;BME280;13506;50.852;20.632;2022-08-18T16:12:47;97984.91;;;30.69;49.58
21359;BME280;13506;50.852;20.632;2022-08-18T16:15:18;97985.31;;;30.84;49.38
21359;BME280;13506;50.852;20.632;2022-08-18T16:17:47;97996.56;;;30.26;50.91